sensor_id;sensor_type;location;lat;lon;timestamp;temperature;humidity
73750;SHT30;62058;48.406;-4.514;2022-12-18T00:00:46;5.10;69.26
73750;SHT30;62058;48.406;-4.514;2022-12-18T00:03:13;5.07;69.16
73750;SHT30;62058;48.406;-4.514;2022-12-18T00:05:49;5.07;69.20
73750;SHT30;62058;48.406;-4.514;2022-12-18T00:08:15;5.12;69.26
73750;SHT30;62058;48.406;-4.514;2022-12-18T00:10:41;5.09;69.67
73750;SHT30;62058;48.406;-4.514;2022-12-18T00:13:07;5.10;69.53
73750;SHT30;62058;48.406;-4.514;2022-12-18T00:15:37;5.10;69.59
73750;SHT30;62058;48.406;-4.514;2022-12-18T00:18:03;5.13;69.74
73750;SHT30;62058;48.406;-4.514;2022-12-18T00:20:29;5.13;69.94
73750;SHT30;62058;48.406;-4.514;2022-12-18T00:22:54;5.06;70.36
73750;SHT30;62058;48.406;-4.514;2022-12-18T00:25:20;5.12;70.38
73750;SHT30;62058;48.406;-4.514;2022-12-18T00:27:45;5.07;70.71
73750;SHT30;62058;48.406;-4.514;2022-12-18T00:30:11;5.10;70.42
73750;SHT30;62058;48.406;-4.514;2022-12-18T00:32:37;5.13;70.55
73750;SHT30;62058;48.406;-4.514;2022-12-18T00:35:03;5.12;70.67
73750;SHT30;62058;48.406;-4.514;2022-12-18T00:37:29;5.15;70.78
73750;SHT30;62058;48.406;-4.514;2022-12-18T00:39:54;5.13;70.82
73750;SHT30;62058;48.406;-4.514;2022-12-18T00:42:20;5.13;71.08
73750;SHT30;62058;48.406;-4.514;2022-12-18T00:45:04;5.19;71.35
73750;SHT30;62058;48.406;-4.514;2022-12-18T00:47:30;5.19;71.82
73750;SHT30;62058;48.406;-4.514;2022-12-18T00:49:55;5.20;71.64
73750;SHT30;62058;48.406;-4.514;2022-12-18T00:52:21;5.24;71.65
73750;SHT30;62058;48.406;-4.514;2022-12-18T00:54:46;5.24;71.75
73750;SHT30;62058;48.406;-4.514;2022-12-18T00:57:11;5.27;71.82
73750;SHT30;62058;48.406;-4.514;2022-12-18T00:59:37;5.30;71.62
73750;SHT30;62058;48.406;-4.514;2022-12-18T01:02:02;5.31;71.94
73750;SHT30;62058;48.406;-4.514;2022-12-18T01:04:27;5.33;71.89
73750;SHT30;62058;48.406;-4.514;2022-12-18T01:06:53;5.36;71.72
73750;SHT30;62058;48.406;-4.514;2022-12-18T01:09:19;5.40;71.61
73750;SHT30;62058;48.406;-4.514;2022-12-18T01:11:44;5.37;71.83
73750;SHT30;62058;48.406;-4.514;2022-12-18T01:14:10;5.38;71.87
73750;SHT30;62058;48.406;-4.514;2022-12-18T01:16:35;5.41;71.91
73750;SHT30;62058;48.406;-4.514;2022-12-18T01:19:00;5.44;71.94
73750;SHT30;62058;48.406;-4.514;2022-12-18T01:21:26;5.38;72.17
73750;SHT30;62058;48.406;-4.514;2022-12-18T01:23:53;5.41;72.27
73750;SHT30;62058;48.406;-4.514;2022-12-18T01:26:19;5.48;72.09
73750;SHT30;62058;48.406;-4.514;2022-12-18T01:28:45;5.50;72.40
73750;SHT30;62058;48.406;-4.514;2022-12-18T01:33:41;5.47;72.71
73750;SHT30;62058;48.406;-4.514;2022-12-18T01:36:07;5.46;72.62
73750;SHT30;62058;48.406;-4.514;2022-12-18T01:38:32;5.46;72.79
73750;SHT30;62058;48.406;-4.514;2022-12-18T01:40:58;5.51;73.01
73750;SHT30;62058;48.406;-4.514;2022-12-18T01:46:11;5.50;73.36
73750;SHT30;62058;48.406;-4.514;2022-12-18T01:48:38;5.51;73.08
73750;SHT30;62058;48.406;-4.514;2022-12-18T01:51:04;5.54;73.24
73750;SHT30;62058;48.406;-4.514;2022-12-18T01:53:29;5.55;73.22
73750;SHT30;62058;48.406;-4.514;2022-12-18T01:55:57;5.57;73.59
73750;SHT30;62058;48.406;-4.514;2022-12-18T02:01:10;5.61;73.51
73750;SHT30;62058;48.406;-4.514;2022-12-18T02:03:36;5.61;73.79
73750;SHT30;62058;48.406;-4.514;2022-12-18T02:06:07;5.65;73.89
73750;SHT30;62058;48.406;-4.514;2022-12-18T02:08:48;5.65;73.74
73750;SHT30;62058;48.406;-4.514;2022-12-18T02:14:13;5.71;74.13
73750;SHT30;62058;48.406;-4.514;2022-12-18T02:16:48;5.75;74.42
73750;SHT30;62058;48.406;-4.514;2022-12-18T02:28:00;5.87;74.72
73750;SHT30;62058;48.406;-4.514;2022-12-18T02:30:29;5.88;74.77
73750;SHT30;62058;48.406;-4.514;2022-12-18T02:32:57;5.91;74.74
73750;SHT30;62058;48.406;-4.514;2022-12-18T02:35:26;5.94;74.92
73750;SHT30;62058;48.406;-4.514;2022-12-18T02:37:53;5.99;74.74
73750;SHT30;62058;48.406;-4.514;2022-12-18T02:40:19;6.01;74.76
73750;SHT30;62058;48.406;-4.514;2022-12-18T02:42:45;6.06;74.92
73750;SHT30;62058;48.406;-4.514;2022-12-18T02:45:11;6.06;75.30
73750;SHT30;62058;48.406;-4.514;2022-12-18T02:47:39;6.11;74.87
73750;SHT30;62058;48.406;-4.514;2022-12-18T02:50:08;6.13;74.92
73750;SHT30;62058;48.406;-4.514;2022-12-18T02:55:30;6.19;75.02
73750;SHT30;62058;48.406;-4.514;2022-12-18T03:01:02;6.25;75.20
73750;SHT30;62058;48.406;-4.514;2022-12-18T03:03:38;6.30;75.33
73750;SHT30;62058;48.406;-4.514;2022-12-18T03:06:12;6.30;75.59
73750;SHT30;62058;48.406;-4.514;2022-12-18T03:08:44;6.36;75.98
73750;SHT30;62058;48.406;-4.514;2022-12-18T03:11:12;6.36;76.00
73750;SHT30;62058;48.406;-4.514;2022-12-18T03:13:47;6.42;76.87
73750;SHT30;62058;48.406;-4.514;2022-12-18T03:16:25;6.40;77.26
73750;SHT30;62058;48.406;-4.514;2022-12-18T03:18:56;6.46;77.35
73750;SHT30;62058;48.406;-4.514;2022-12-18T03:21:35;6.50;77.86
73750;SHT30;62058;48.406;-4.514;2022-12-18T03:24:06;6.47;78.01
73750;SHT30;62058;48.406;-4.514;2022-12-18T03:26:34;6.50;77.80
73750;SHT30;62058;48.406;-4.514;2022-12-18T03:29:04;6.52;77.59
73750;SHT30;62058;48.406;-4.514;2022-12-18T03:31:32;6.53;77.80
73750;SHT30;62058;48.406;-4.514;2022-12-18T03:34:01;6.57;77.63
73750;SHT30;62058;48.406;-4.514;2022-12-18T03:36:28;6.62;78.03
73750;SHT30;62058;48.406;-4.514;2022-12-18T03:38:53;6.63;77.87
73750;SHT30;62058;48.406;-4.514;2022-12-18T03:41:30;6.62;77.84
73750;SHT30;62058;48.406;-4.514;2022-12-18T03:44:29;6.63;78.27
73750;SHT30;62058;48.406;-4.514;2022-12-18T03:47:08;6.67;78.53
73750;SHT30;62058;48.406;-4.514;2022-12-18T03:49:49;6.69;78.35
73750;SHT30;62058;48.406;-4.514;2022-12-18T03:52:33;6.67;78.83
73750;SHT30;62058;48.406;-4.514;2022-12-18T03:55:01;6.70;78.81
73750;SHT30;62058;48.406;-4.514;2022-12-18T03:57:30;6.70;78.10
73750;SHT30;62058;48.406;-4.514;2022-12-18T04:00:01;6.73;77.98
73750;SHT30;62058;48.406;-4.514;2022-12-18T04:02:29;6.77;78.82
73750;SHT30;62058;48.406;-4.514;2022-12-18T04:04:59;6.76;78.75
73750;SHT30;62058;48.406;-4.514;2022-12-18T04:07:25;6.79;78.57
73750;SHT30;62058;48.406;-4.514;2022-12-18T04:09:53;6.83;79.19
73750;SHT30;62058;48.406;-4.514;2022-12-18T04:12:20;6.85;78.60
73750;SHT30;62058;48.406;-4.514;2022-12-18T04:14:46;6.87;78.82
73750;SHT30;62058;48.406;-4.514;2022-12-18T04:17:11;6.90;78.79
73750;SHT30;62058;48.406;-4.514;2022-12-18T04:19:37;6.94;79.27
73750;SHT30;62058;48.406;-4.514;2022-12-18T04:22:02;6.98;79.36
73750;SHT30;62058;48.406;-4.514;2022-12-18T04:24:27;7.01;79.84
73750;SHT30;62058;48.406;-4.514;2022-12-18T04:26:53;7.04;79.96
73750;SHT30;62058;48.406;-4.514;2022-12-18T04:29:18;7.05;81.59
73750;SHT30;62058;48.406;-4.514;2022-12-18T04:31:44;7.12;81.13
73750;SHT30;62058;48.406;-4.514;2022-12-18T04:34:09;7.17;80.75
73750;SHT30;62058;48.406;-4.514;2022-12-18T04:36:34;7.27;80.25
73750;SHT30;62058;48.406;-4.514;2022-12-18T04:39:00;7.31;80.30
73750;SHT30;62058;48.406;-4.514;2022-12-18T04:41:25;7.34;81.81
73750;SHT30;62058;48.406;-4.514;2022-12-18T04:43:51;7.42;80.72
73750;SHT30;62058;48.406;-4.514;2022-12-18T04:46:16;7.46;81.74
73750;SHT30;62058;48.406;-4.514;2022-12-18T04:48:41;7.49;81.11
73750;SHT30;62058;48.406;-4.514;2022-12-18T04:51:07;7.56;80.79
73750;SHT30;62058;48.406;-4.514;2022-12-18T04:53:32;7.58;82.04
73750;SHT30;62058;48.406;-4.514;2022-12-18T04:56:05;7.62;81.98
73750;SHT30;62058;48.406;-4.514;2022-12-18T04:58:31;7.65;81.63
73750;SHT30;62058;48.406;-4.514;2022-12-18T05:00:56;7.69;83.70
73750;SHT30;62058;48.406;-4.514;2022-12-18T05:03:22;7.70;85.07
73750;SHT30;62058;48.406;-4.514;2022-12-18T05:05:50;7.72;82.59
73750;SHT30;62058;48.406;-4.514;2022-12-18T05:08:16;7.76;83.21
73750;SHT30;62058;48.406;-4.514;2022-12-18T05:10:42;7.75;82.83
73750;SHT30;62058;48.406;-4.514;2022-12-18T05:13:07;7.80;83.33
73750;SHT30;62058;48.406;-4.514;2022-12-18T05:15:33;7.78;86.70
73750;SHT30;62058;48.406;-4.514;2022-12-18T05:17:59;7.83;84.83
73750;SHT30;62058;48.406;-4.514;2022-12-18T05:20:26;7.83;87.53
73750;SHT30;62058;48.406;-4.514;2022-12-18T05:22:52;7.79;87.94
73750;SHT30;62058;48.406;-4.514;2022-12-18T05:25:19;7.83;88.05
73750;SHT30;62058;48.406;-4.514;2022-12-18T05:27:44;7.82;88.05
73750;SHT30;62058;48.406;-4.514;2022-12-18T05:30:11;7.87;86.61
73750;SHT30;62058;48.406;-4.514;2022-12-18T05:32:38;7.93;86.46
73750;SHT30;62058;48.406;-4.514;2022-12-18T05:35:04;7.96;85.76
73750;SHT30;62058;48.406;-4.514;2022-12-18T05:37:30;8.01;86.43
73750;SHT30;62058;48.406;-4.514;2022-12-18T05:39:56;8.07;86.63
73750;SHT30;62058;48.406;-4.514;2022-12-18T05:42:21;8.07;86.44
73750;SHT30;62058;48.406;-4.514;2022-12-18T05:44:46;8.11;86.75
73750;SHT30;62058;48.406;-4.514;2022-12-18T05:47:13;8.10;86.51
73750;SHT30;62058;48.406;-4.514;2022-12-18T05:49:38;8.13;86.41
73750;SHT30;62058;48.406;-4.514;2022-12-18T05:52:04;8.13;86.46
73750;SHT30;62058;48.406;-4.514;2022-12-18T05:54:29;8.10;86.95
73750;SHT30;62058;48.406;-4.514;2022-12-18T05:56:56;8.11;86.75
73750;SHT30;62058;48.406;-4.514;2022-12-18T05:59:22;8.11;87.03
73750;SHT30;62058;48.406;-4.514;2022-12-18T06:01:47;8.16;86.55
73750;SHT30;62058;48.406;-4.514;2022-12-18T06:04:13;8.19;86.72
73750;SHT30;62058;48.406;-4.514;2022-12-18T06:06:38;8.17;86.57
73750;SHT30;62058;48.406;-4.514;2022-12-18T06:09:04;8.21;86.99
73750;SHT30;62058;48.406;-4.514;2022-12-18T06:11:36;8.26;86.81
73750;SHT30;62058;48.406;-4.514;2022-12-18T06:14:03;8.27;86.81
73750;SHT30;62058;48.406;-4.514;2022-12-18T06:16:29;8.31;87.08
73750;SHT30;62058;48.406;-4.514;2022-12-18T06:19:03;8.30;87.12
73750;SHT30;62058;48.406;-4.514;2022-12-18T06:21:29;8.34;87.18
73750;SHT30;62058;48.406;-4.514;2022-12-18T06:23:55;8.36;87.31
73750;SHT30;62058;48.406;-4.514;2022-12-18T06:26:20;8.38;87.39
73750;SHT30;62058;48.406;-4.514;2022-12-18T06:28:46;8.40;87.40
73750;SHT30;62058;48.406;-4.514;2022-12-18T06:31:12;8.42;87.55
73750;SHT30;62058;48.406;-4.514;2022-12-18T06:33:38;8.51;87.89
73750;SHT30;62058;48.406;-4.514;2022-12-18T06:36:09;8.48;88.39
73750;SHT30;62058;48.406;-4.514;2022-12-18T06:38:38;8.45;88.02
73750;SHT30;62058;48.406;-4.514;2022-12-18T06:41:12;8.51;87.93
73750;SHT30;62058;48.406;-4.514;2022-12-18T06:43:38;8.50;87.85
73750;SHT30;62058;48.406;-4.514;2022-12-18T06:46:04;8.51;87.94
73750;SHT30;62058;48.406;-4.514;2022-12-18T06:48:30;8.51;88.54
73750;SHT30;62058;48.406;-4.514;2022-12-18T06:50:55;8.51;88.46
73750;SHT30;62058;48.406;-4.514;2022-12-18T06:53:21;8.54;88.66
73750;SHT30;62058;48.406;-4.514;2022-12-18T06:55:46;8.60;88.49
73750;SHT30;62058;48.406;-4.514;2022-12-18T06:58:12;8.58;89.64
73750;SHT30;62058;48.406;-4.514;2022-12-18T07:00:37;8.62;89.26
73750;SHT30;62058;48.406;-4.514;2022-12-18T07:03:02;8.67;89.60
73750;SHT30;62058;48.406;-4.514;2022-12-18T07:05:28;8.74;89.52
73750;SHT30;62058;48.406;-4.514;2022-12-18T07:07:53;8.76;90.14
73750;SHT30;62058;48.406;-4.514;2022-12-18T07:10:19;8.86;89.92
73750;SHT30;62058;48.406;-4.514;2022-12-18T07:12:44;8.95;89.88
73750;SHT30;62058;48.406;-4.514;2022-12-18T07:15:10;9.02;90.02
73750;SHT30;62058;48.406;-4.514;2022-12-18T07:17:36;9.05;89.91
73750;SHT30;62058;48.406;-4.514;2022-12-18T07:20:03;9.06;89.90
73750;SHT30;62058;48.406;-4.514;2022-12-18T07:22:28;9.09;90.01
73750;SHT30;62058;48.406;-4.514;2022-12-18T07:24:54;9.11;89.95
73750;SHT30;62058;48.406;-4.514;2022-12-18T07:27:20;9.11;89.87
73750;SHT30;62058;48.406;-4.514;2022-12-18T07:29:46;9.12;90.05
73750;SHT30;62058;48.406;-4.514;2022-12-18T07:32:11;9.15;90.02
73750;SHT30;62058;48.406;-4.514;2022-12-18T07:34:37;9.19;90.03
73750;SHT30;62058;48.406;-4.514;2022-12-18T07:37:02;9.20;90.23
73750;SHT30;62058;48.406;-4.514;2022-12-18T07:39:27;9.23;90.51
73750;SHT30;62058;48.406;-4.514;2022-12-18T07:41:53;9.29;90.41
73750;SHT30;62058;48.406;-4.514;2022-12-18T07:44:37;9.32;90.77
73750;SHT30;62058;48.406;-4.514;2022-12-18T07:47:02;9.35;90.75
73750;SHT30;62058;48.406;-4.514;2022-12-18T07:49:28;9.39;91.01
73750;SHT30;62058;48.406;-4.514;2022-12-18T07:51:57;9.36;91.69
73750;SHT30;62058;48.406;-4.514;2022-12-18T07:54:23;9.37;92.15
73750;SHT30;62058;48.406;-4.514;2022-12-18T07:56:49;9.43;91.37
73750;SHT30;62058;48.406;-4.514;2022-12-18T07:59:15;9.46;91.77
73750;SHT30;62058;48.406;-4.514;2022-12-18T08:01:40;9.48;91.98
73750;SHT30;62058;48.406;-4.514;2022-12-18T08:04:05;9.46;92.65
73750;SHT30;62058;48.406;-4.514;2022-12-18T08:06:31;9.46;92.39
73750;SHT30;62058;48.406;-4.514;2022-12-18T08:08:57;9.48;92.60
73750;SHT30;62058;48.406;-4.514;2022-12-18T08:11:24;9.51;93.07
73750;SHT30;62058;48.406;-4.514;2022-12-18T08:13:51;9.54;92.46
73750;SHT30;62058;48.406;-4.514;2022-12-18T08:16:16;9.63;92.06
73750;SHT30;62058;48.406;-4.514;2022-12-18T08:18:42;9.70;92.91
73750;SHT30;62058;48.406;-4.514;2022-12-18T08:21:12;9.77;92.12
73750;SHT30;62058;48.406;-4.514;2022-12-18T08:23:38;9.83;92.10
73750;SHT30;62058;48.406;-4.514;2022-12-18T08:26:05;9.90;92.95
73750;SHT30;62058;48.406;-4.514;2022-12-18T08:28:30;10.05;92.14
73750;SHT30;62058;48.406;-4.514;2022-12-18T08:30:55;10.07;92.23
73750;SHT30;62058;48.406;-4.514;2022-12-18T08:33:21;10.15;92.55
73750;SHT30;62058;48.406;-4.514;2022-12-18T08:35:46;10.22;92.53
73750;SHT30;62058;48.406;-4.514;2022-12-18T08:38:12;10.27;92.25
73750;SHT30;62058;48.406;-4.514;2022-12-18T08:40:37;10.35;92.46
73750;SHT30;62058;48.406;-4.514;2022-12-18T08:43:02;10.41;92.62
73750;SHT30;62058;48.406;-4.514;2022-12-18T08:45:47;10.44;92.49
73750;SHT30;62058;48.406;-4.514;2022-12-18T08:48:12;10.53;92.81
73750;SHT30;62058;48.406;-4.514;2022-12-18T08:50:37;10.61;93.40
73750;SHT30;62058;48.406;-4.514;2022-12-18T08:53:03;10.71;93.30
73750;SHT30;62058;48.406;-4.514;2022-12-18T08:55:28;10.82;93.44
73750;SHT30;62058;48.406;-4.514;2022-12-18T08:57:54;10.88;93.78
73750;SHT30;62058;48.406;-4.514;2022-12-18T09:00:19;10.92;93.96
73750;SHT30;62058;48.406;-4.514;2022-12-18T09:02:45;10.97;93.51
73750;SHT30;62058;48.406;-4.514;2022-12-18T09:05:10;11.02;93.39
73750;SHT30;62058;48.406;-4.514;2022-12-18T09:07:36;11.03;93.24
73750;SHT30;62058;48.406;-4.514;2022-12-18T09:10:01;11.09;93.16
73750;SHT30;62058;48.406;-4.514;2022-12-18T09:12:26;11.10;93.06
73750;SHT30;62058;48.406;-4.514;2022-12-18T09:14:52;11.14;93.39
73750;SHT30;62058;48.406;-4.514;2022-12-18T09:17:17;11.16;93.16
73750;SHT30;62058;48.406;-4.514;2022-12-18T09:19:42;11.17;93.33
73750;SHT30;62058;48.406;-4.514;2022-12-18T09:22:09;11.23;93.10
73750;SHT30;62058;48.406;-4.514;2022-12-18T09:24:34;11.22;93.54
73750;SHT30;62058;48.406;-4.514;2022-12-18T09:27:00;11.24;93.20
73750;SHT30;62058;48.406;-4.514;2022-12-18T09:29:25;11.24;93.33
73750;SHT30;62058;48.406;-4.514;2022-12-18T09:31:51;11.28;93.40
73750;SHT30;62058;48.406;-4.514;2022-12-18T09:34:16;11.23;93.90
73750;SHT30;62058;48.406;-4.514;2022-12-18T09:36:42;11.17;94.13
73750;SHT30;62058;48.406;-4.514;2022-12-18T09:39:07;11.17;94.15
73750;SHT30;62058;48.406;-4.514;2022-12-18T09:41:46;11.23;94.10
73750;SHT30;62058;48.406;-4.514;2022-12-18T09:44:28;11.20;94.49
73750;SHT30;62058;48.406;-4.514;2022-12-18T09:49:50;11.17;94.65
73750;SHT30;62058;48.406;-4.514;2022-12-18T09:52:25;11.19;94.88
73750;SHT30;62058;48.406;-4.514;2022-12-18T09:55:10;11.20;94.44
73750;SHT30;62058;48.406;-4.514;2022-12-18T09:57:42;11.17;94.92
73750;SHT30;62058;48.406;-4.514;2022-12-18T10:00:21;11.16;95.13
73750;SHT30;62058;48.406;-4.514;2022-12-18T10:02:49;11.17;95.06
73750;SHT30;62058;48.406;-4.514;2022-12-18T10:05:19;11.20;94.93
73750;SHT30;62058;48.406;-4.514;2022-12-18T10:08:02;11.17;94.82
73750;SHT30;62058;48.406;-4.514;2022-12-18T10:13:41;11.24;94.68
73750;SHT30;62058;48.406;-4.514;2022-12-18T10:16:18;11.26;94.81
73750;SHT30;62058;48.406;-4.514;2022-12-18T10:27:30;11.27;94.99
73750;SHT30;62058;48.406;-4.514;2022-12-18T10:29:57;11.30;95.13
73750;SHT30;62058;48.406;-4.514;2022-12-18T10:32:28;11.26;94.97
73750;SHT30;62058;48.406;-4.514;2022-12-18T10:34:57;11.31;95.05
73750;SHT30;62058;48.406;-4.514;2022-12-18T10:37:28;11.31;94.73
73750;SHT30;62058;48.406;-4.514;2022-12-18T10:40:10;11.27;95.13
73750;SHT30;62058;48.406;-4.514;2022-12-18T10:42:36;11.35;94.86
73750;SHT30;62058;48.406;-4.514;2022-12-18T10:45:13;11.35;94.74
73750;SHT30;62058;48.406;-4.514;2022-12-18T10:47:46;11.34;94.74
73750;SHT30;62058;48.406;-4.514;2022-12-18T10:52:59;11.40;94.45
73750;SHT30;62058;48.406;-4.514;2022-12-18T10:55:34;11.41;94.54
73750;SHT30;62058;48.406;-4.514;2022-12-18T10:58:20;11.47;94.39
73750;SHT30;62058;48.406;-4.514;2022-12-18T11:01:11;11.48;94.33
73750;SHT30;62058;48.406;-4.514;2022-12-18T11:06:15;11.47;94.30
73750;SHT30;62058;48.406;-4.514;2022-12-18T11:08:43;11.47;95.21
73750;SHT30;62058;48.406;-4.514;2022-12-18T11:11:35;11.51;95.10
73750;SHT30;62058;48.406;-4.514;2022-12-18T11:14:05;11.48;95.35
73750;SHT30;62058;48.406;-4.514;2022-12-18T11:16:42;11.53;94.81
73750;SHT30;62058;48.406;-4.514;2022-12-18T11:19:19;11.54;94.94
73750;SHT30;62058;48.406;-4.514;2022-12-18T11:21:46;11.60;94.27
73750;SHT30;62058;48.406;-4.514;2022-12-18T11:24:32;11.58;93.86
73750;SHT30;62058;48.406;-4.514;2022-12-18T11:27:01;11.60;93.82
73750;SHT30;62058;48.406;-4.514;2022-12-18T11:29:38;11.60;93.84
73750;SHT30;62058;48.406;-4.514;2022-12-18T11:32:43;11.58;93.50
73750;SHT30;62058;48.406;-4.514;2022-12-18T11:37:41;11.60;93.70
73750;SHT30;62058;48.406;-4.514;2022-12-18T11:40:17;11.63;93.88
73750;SHT30;62058;48.406;-4.514;2022-12-18T11:45:45;11.67;94.16
73750;SHT30;62058;48.406;-4.514;2022-12-18T11:50:55;11.65;94.31
73750;SHT30;62058;48.406;-4.514;2022-12-18T11:53:22;11.64;94.29
73750;SHT30;62058;48.406;-4.514;2022-12-18T11:58:48;11.67;94.32
73750;SHT30;62058;48.406;-4.514;2022-12-18T12:04:41;11.67;93.81
73750;SHT30;62058;48.406;-4.514;2022-12-18T12:07:31;11.70;94.02
73750;SHT30;62058;48.406;-4.514;2022-12-18T12:25:52;11.78;94.18
73750;SHT30;62058;48.406;-4.514;2022-12-18T12:33:44;11.77;94.04
73750;SHT30;62058;48.406;-4.514;2022-12-18T12:36:16;11.73;93.69
73750;SHT30;62058;48.406;-4.514;2022-12-18T12:38:49;11.79;93.94
73750;SHT30;62058;48.406;-4.514;2022-12-18T12:41:19;11.79;93.90
73750;SHT30;62058;48.406;-4.514;2022-12-18T12:44:07;11.71;93.85
73750;SHT30;62058;48.406;-4.514;2022-12-18T12:46:37;11.74;94.01
73750;SHT30;62058;48.406;-4.514;2022-12-18T12:49:11;11.82;94.13
73750;SHT30;62058;48.406;-4.514;2022-12-18T12:51:41;11.79;93.93
73750;SHT30;62058;48.406;-4.514;2022-12-18T12:54:20;11.77;94.47
73750;SHT30;62058;48.406;-4.514;2022-12-18T12:56:56;11.85;94.44
73750;SHT30;62058;48.406;-4.514;2022-12-18T13:02:11;11.86;94.48
73750;SHT30;62058;48.406;-4.514;2022-12-18T13:04:52;11.91;94.89
73750;SHT30;62058;48.406;-4.514;2022-12-18T13:23:26;12.05;93.94
73750;SHT30;62058;48.406;-4.514;2022-12-18T13:33:43;12.18;93.93
73750;SHT30;62058;48.406;-4.514;2022-12-18T13:36:13;12.16;94.00
73750;SHT30;62058;48.406;-4.514;2022-12-18T13:38:40;12.21;94.19
73750;SHT30;62058;48.406;-4.514;2022-12-18T13:46:30;12.25;94.12
73750;SHT30;62058;48.406;-4.514;2022-12-18T13:51:41;12.18;94.55
73750;SHT30;62058;48.406;-4.514;2022-12-18T13:56:55;12.12;94.55
73750;SHT30;62058;48.406;-4.514;2022-12-18T14:01:49;12.19;94.65
73750;SHT30;62058;48.406;-4.514;2022-12-18T14:04:20;12.21;94.66
73750;SHT30;62058;48.406;-4.514;2022-12-18T14:06:47;12.21;94.60
73750;SHT30;62058;48.406;-4.514;2022-12-18T14:09:25;12.19;94.74
73750;SHT30;62058;48.406;-4.514;2022-12-18T14:11:52;12.16;94.56
73750;SHT30;62058;48.406;-4.514;2022-12-18T14:14:41;12.18;94.76
73750;SHT30;62058;48.406;-4.514;2022-12-18T14:17:11;12.19;94.42
73750;SHT30;62058;48.406;-4.514;2022-12-18T14:19:41;12.16;94.06
73750;SHT30;62058;48.406;-4.514;2022-12-18T14:22:15;12.21;94.38
73750;SHT30;62058;48.406;-4.514;2022-12-18T14:24:41;12.21;94.30
73750;SHT30;62058;48.406;-4.514;2022-12-18T14:27:25;12.24;94.05
73750;SHT30;62058;48.406;-4.514;2022-12-18T14:29:51;12.25;94.21
73750;SHT30;62058;48.406;-4.514;2022-12-18T14:32:20;12.28;94.65
73750;SHT30;62058;48.406;-4.514;2022-12-18T14:34:49;12.33;94.60
73750;SHT30;62058;48.406;-4.514;2022-12-18T14:37:24;12.30;94.69
73750;SHT30;62058;48.406;-4.514;2022-12-18T14:39:54;12.35;94.71
73750;SHT30;62058;48.406;-4.514;2022-12-18T14:42:20;12.33;94.72
73750;SHT30;62058;48.406;-4.514;2022-12-18T14:44:45;12.35;94.81
73750;SHT30;62058;48.406;-4.514;2022-12-18T14:47:15;12.37;94.71
73750;SHT30;62058;48.406;-4.514;2022-12-18T14:49:41;12.40;94.64
73750;SHT30;62058;48.406;-4.514;2022-12-18T14:52:23;12.40;94.69
73750;SHT30;62058;48.406;-4.514;2022-12-18T14:54:51;12.45;94.72
73750;SHT30;62058;48.406;-4.514;2022-12-18T14:57:24;12.35;94.65
73750;SHT30;62058;48.406;-4.514;2022-12-18T14:59:50;12.35;94.45
73750;SHT30;62058;48.406;-4.514;2022-12-18T15:05:02;12.36;94.96
73750;SHT30;62058;48.406;-4.514;2022-12-18T15:07:40;12.40;95.01
73750;SHT30;62058;48.406;-4.514;2022-12-18T15:20:40;12.28;95.26
73750;SHT30;62058;48.406;-4.514;2022-12-18T15:23:19;12.29;95.42
73750;SHT30;62058;48.406;-4.514;2022-12-18T15:25:46;12.29;95.52
73750;SHT30;62058;48.406;-4.514;2022-12-18T15:28:19;12.26;95.29
73750;SHT30;62058;48.406;-4.514;2022-12-18T15:33:33;12.30;95.39
73750;SHT30;62058;48.406;-4.514;2022-12-18T15:36:01;12.26;95.43
73750;SHT30;62058;48.406;-4.514;2022-12-18T15:38:27;12.29;96.03
73750;SHT30;62058;48.406;-4.514;2022-12-18T15:40:53;12.26;95.39
73750;SHT30;62058;48.406;-4.514;2022-12-18T15:43:21;12.28;95.49
73750;SHT30;62058;48.406;-4.514;2022-12-18T15:48:27;12.35;95.20
73750;SHT30;62058;48.406;-4.514;2022-12-18T15:50:55;12.39;95.08
73750;SHT30;62058;48.406;-4.514;2022-12-18T15:53:23;12.37;95.04
73750;SHT30;62058;48.406;-4.514;2022-12-18T15:55:49;12.35;94.69
73750;SHT30;62058;48.406;-4.514;2022-12-18T15:58:33;12.35;94.90
73750;SHT30;62058;48.406;-4.514;2022-12-18T16:00:58;12.33;94.16
73750;SHT30;62058;48.406;-4.514;2022-12-18T16:03:24;12.37;94.78
73750;SHT30;62058;48.406;-4.514;2022-12-18T16:05:50;12.42;94.55
73750;SHT30;62058;48.406;-4.514;2022-12-18T16:08:15;12.45;94.61
73750;SHT30;62058;48.406;-4.514;2022-12-18T16:10:40;12.45;94.11
73750;SHT30;62058;48.406;-4.514;2022-12-18T16:13:10;12.49;94.34
73750;SHT30;62058;48.406;-4.514;2022-12-18T16:15:35;12.53;94.35
73750;SHT30;62058;48.406;-4.514;2022-12-18T16:18:01;12.52;94.07
73750;SHT30;62058;48.406;-4.514;2022-12-18T16:20:26;12.53;94.09
73750;SHT30;62058;48.406;-4.514;2022-12-18T16:22:51;12.56;93.63
73750;SHT30;62058;48.406;-4.514;2022-12-18T16:25:23;12.60;93.97
73750;SHT30;62058;48.406;-4.514;2022-12-18T16:27:50;12.60;94.14
73750;SHT30;62058;48.406;-4.514;2022-12-18T16:30:17;12.63;93.75
73750;SHT30;62058;48.406;-4.514;2022-12-18T16:32:43;12.61;93.43
73750;SHT30;62058;48.406;-4.514;2022-12-18T16:35:10;12.69;94.05
73750;SHT30;62058;48.406;-4.514;2022-12-18T16:37:36;12.72;93.96
73750;SHT30;62058;48.406;-4.514;2022-12-18T16:40:02;12.73;92.32
73750;SHT30;62058;48.406;-4.514;2022-12-18T16:42:27;12.81;93.49
73750;SHT30;62058;48.406;-4.514;2022-12-18T16:44:53;12.83;91.87
73750;SHT30;62058;48.406;-4.514;2022-12-18T16:47:18;12.89;91.83
73750;SHT30;62058;48.406;-4.514;2022-12-18T16:49:44;12.94;93.27
73750;SHT30;62058;48.406;-4.514;2022-12-18T16:52:11;12.99;91.35
73750;SHT30;62058;48.406;-4.514;2022-12-18T16:54:36;13.06;92.21
73750;SHT30;62058;48.406;-4.514;2022-12-18T16:57:03;13.07;91.52
73750;SHT30;62058;48.406;-4.514;2022-12-18T16:59:29;13.12;91.88
73750;SHT30;62058;48.406;-4.514;2022-12-18T17:01:55;13.15;92.33
73750;SHT30;62058;48.406;-4.514;2022-12-18T17:04:21;13.20;90.32
73750;SHT30;62058;48.406;-4.514;2022-12-18T17:06:47;13.21;90.92
73750;SHT30;62058;48.406;-4.514;2022-12-18T17:09:17;13.28;91.52
73750;SHT30;62058;48.406;-4.514;2022-12-18T17:11:43;13.30;89.97
73750;SHT30;62058;48.406;-4.514;2022-12-18T17:14:12;13.34;90.36
73750;SHT30;62058;48.406;-4.514;2022-12-18T17:16:39;13.38;91.42
73750;SHT30;62058;48.406;-4.514;2022-12-18T17:19:05;13.38;91.36
73750;SHT30;62058;48.406;-4.514;2022-12-18T17:21:30;13.41;90.47
73750;SHT30;62058;48.406;-4.514;2022-12-18T17:23:59;13.44;91.16
73750;SHT30;62058;48.406;-4.514;2022-12-18T17:26:25;13.50;91.59
73750;SHT30;62058;48.406;-4.514;2022-12-18T17:28:51;13.48;90.45
73750;SHT30;62058;48.406;-4.514;2022-12-18T17:31:22;13.51;91.71
73750;SHT30;62058;48.406;-4.514;2022-12-18T17:33:49;13.48;91.04
73750;SHT30;62058;48.406;-4.514;2022-12-18T17:36:15;13.44;92.35
73750;SHT30;62058;48.406;-4.514;2022-12-18T17:38:41;13.38;93.65
73750;SHT30;62058;48.406;-4.514;2022-12-18T17:41:07;13.28;94.33
73750;SHT30;62058;48.406;-4.514;2022-12-18T17:43:34;13.30;94.26
73750;SHT30;62058;48.406;-4.514;2022-12-18T17:46:06;13.31;94.61
73750;SHT30;62058;48.406;-4.514;2022-12-18T17:48:32;13.30;94.49
73750;SHT30;62058;48.406;-4.514;2022-12-18T17:51:05;13.30;94.57